Time;durP1;ratioP1;P1;durP2;ratioP2;P2;SDS_P1;SDS_P2;PMS_P1;PMS_P2;Temp;Humidity;BMP_temperature;BMP_pressure;BME280_temperature;BME280_humidity;BME280_pressure;Samples;Min_cycle;Max_cycle;Signal;HPM_P1;HPM_P2
2024/03/06 17:41:52;;;;;;;20.10;11.45;;;4.50;99.90;;;;;;5090347;27;20424;-74
2024/03/06 17:44:40;;;;;;;20.17;10.30;;;4.40;99.90;;;;;;5088811;28;20204;-75
2024/03/06 17:47:28;;;;;;;19.37;9.77;;;4.40;99.90;;;;;;5088010;28;20194;-75
2024/03/06 17:50:15;;;;;;;18.60;9.50;;;4.50;99.90;;;;;;5125079;28;20205;-75
2024/03/06 17:53:10;;;;;;;16.77;8.80;;;4.60;99.90;;;;;;5114386;28;20225;-74
2024/03/06 17:55:59;;;;;;;20.10;10.13;;;4.70;99.90;;;;;;5114393;28;20208;-75
2024/03/06 17:58:46;;;;;;;17.87;9.47;;;4.60;99.90;;;;;;5128299;28;20663;-74
2024/03/06 18:01:34;;;;;;;17.83;9.07;;;4.70;99.90;;;;;;5126992;28;20220;-74
2024/03/06 18:04:24;;;;;;;18.83;10.10;;;4.80;99.90;;;;;;5114281;28;20615;-74
2024/03/06 18:07:11;;;;;;;19.10;9.90;;;4.80;99.90;;;;;;5128284;28;20191;-74
2024/03/06 18:10:00;;;;;;;21.33;10.53;;;4.90;99.90;;;;;;5127916;28;20213;-74
2024/03/06 18:12:48;;;;;;;19.43;10.20;;;4.90;99.90;;;;;;5114212;28;20671;-74
2024/03/06 18:15:35;;;;;;;20.33;10.13;;;4.90;99.90;;;;;;5128133;28;20211;-74
2024/03/06 18:18:23;;;;;;;20.20;10.20;;;4.80;99.90;;;;;;5132289;28;20189;-72
2024/03/06 18:21:10;;;;;;;21.47;10.70;;;4.80;99.90;;;;;;5128761;28;20289;-74
2024/03/06 18:23:58;;;;;;;19.77;10.47;;;4.80;99.90;;;;;;5114495;28;20200;-75
2024/03/06 18:26:46;;;;;;;20.73;10.97;;;4.80;99.90;;;;;;5129091;28;20189;-75
2024/03/06 18:29:34;;;;;;;17.73;10.37;;;4.90;99.90;;;;;;5129670;27;20197;-75
2024/03/06 18:32:22;;;;;;;22.23;10.97;;;4.80;99.90;;;;;;5128379;28;20687;-74
2024/03/06 18:35:10;;;;;;;21.40;10.60;;;4.80;99.90;;;;;;5114589;28;20213;-75
2024/03/06 18:37:57;;;;;;;20.03;10.77;;;4.80;99.90;;;;;;5128913;28;20199;-75
2024/03/06 18:40:48;;;;;;;19.87;10.70;;;4.70;99.90;;;;;;5113973;28;20737;-75
2024/03/06 18:43:36;;;;;;;22.80;11.23;;;4.70;99.90;;;;;;5128108;28;20281;-75
2024/03/06 18:46:23;;;;;;;25.10;11.83;;;4.60;99.90;;;;;;5128143;28;20577;-74
2024/03/06 18:49:13;;;;;;;23.37;11.93;;;4.50;99.90;;;;;;5129719;27;20748;-75
2024/03/06 18:52:00;;;;;;;19.93;10.90;;;4.40;99.90;;;;;;5121475;28;20190;-75
2024/03/06 18:54:51;;;;;;;19.50;11.00;;;4.40;99.90;;;;;;5115569;28;20273;-75
2024/03/06 18:57:39;;;;;;;25.83;11.67;;;4.40;99.90;;;;;;5114681;28;20200;-74
2024/03/06 19:00:26;;;;;;;22.23;11.27;;;4.40;99.90;;;;;;5113999;28;20224;-75
2024/03/06 19:03:14;;;;;;;26.67;12.03;;;4.30;99.90;;;;;;5113679;28;20191;-75
2024/03/06 19:06:02;;;;;;;21.37;10.80;;;4.40;99.90;;;;;;5115232;28;20193;-75
2024/03/06 19:08:50;;;;;;;23.53;11.63;;;4.40;99.90;;;;;;5100074;28;20567;-75
2024/03/06 19:11:39;;;;;;;22.43;11.03;;;4.40;99.90;;;;;;5113916;28;20198;-74
2024/03/06 19:14:26;;;;;;;21.53;11.40;;;4.40;99.90;;;;;;5100024;28;20222;-77
2024/03/06 19:17:14;;;;;;;24.23;11.48;;;4.40;99.90;;;;;;5113704;28;20412;-75
2024/03/06 19:20:02;;;;;;;26.13;11.70;;;4.40;99.90;;;;;;5113591;28;20217;-85
2024/03/06 19:22:50;;;;;;;23.85;14.45;;;4.50;99.90;;;;;;5096862;28;20413;-83
2024/03/06 19:25:38;;;;;;;24.00;12.53;;;4.40;99.90;;;;;;5112009;28;20687;-72
2024/03/06 19:28:25;;;;;;;22.20;12.30;;;4.50;99.90;;;;;;5113768;28;20196;-74
2024/03/06 19:31:13;;;;;;;22.43;11.63;;;4.50;99.90;;;;;;5114329;28;20192;-74
2024/03/06 19:34:01;;;;;;;25.17;12.67;;;4.50;99.90;;;;;;5114047;28;20215;-74
2024/03/06 19:36:53;;;;;;;28.03;12.43;;;4.50;99.90;;;;;;5099624;28;20229;-74
2024/03/06 19:39:41;;;;;;;28.07;13.00;;;4.50;99.90;;;;;;5099459;28;20200;-74
2024/03/06 19:42:30;;;;;;;23.97;12.73;;;4.50;99.90;;;;;;5114703;28;20636;-74
2024/03/06 19:45:17;;;;;;;24.30;12.63;;;4.40;99.90;;;;;;5099118;28;20400;-75
2024/03/06 19:48:06;;;;;;;29.42;16.13;;;4.40;99.90;;;;;;5113003;28;20451;-84
2024/03/06 19:50:54;;;;;;;46.55;25.60;;;4.40;99.90;;;;;;5099099;28;20408;-77
2024/03/06 19:53:42;;;;;;;25.43;14.20;;;4.40;99.90;;;;;;5099474;28;20677;-78
2024/03/06 19:56:30;;;;;;;25.77;13.43;;;4.50;99.90;;;;;;5098245;28;20193;-78
2024/03/06 19:59:18;;;;;;;25.40;13.43;;;4.50;99.90;;;;;;5099895;28;20542;-78
2024/03/06 20:02:06;;;;;;;23.23;12.50;;;4.50;99.90;;;;;;5098695;28;20230;-78
2024/03/06 20:04:53;;;;;;;25.87;13.23;;;4.50;99.90;;;;;;5097128;28;20310;-78
2024/03/06 20:07:41;;;;;;;23.33;11.80;;;4.50;99.90;;;;;;5099190;28;20201;-78
2024/03/06 20:10:29;;;;;;;23.27;12.10;;;4.50;99.90;;;;;;5099061;28;20203;-78
2024/03/06 20:13:17;;;;;;;24.07;12.23;;;4.50;99.90;;;;;;5114000;28;20267;-78
2024/03/06 20:16:06;;;;;;;21.80;12.70;;;4.40;99.90;;;;;;5114085;28;20193;-78
2024/03/06 20:18:55;;;;;;;22.67;11.67;;;4.40;99.90;;;;;;5112792;28;20683;-78
2024/03/06 20:21:49;;;;;;;23.10;12.07;;;4.30;99.90;;;;;;5113215;28;20700;-78
2024/03/06 20:24:37;;;;;;;23.63;12.70;;;4.30;99.90;;;;;;5098761;28;20542;-78
2024/03/06 20:27:28;;;;;;;24.43;12.70;;;4.40;99.90;;;;;;5098216;28;20193;-78
2024/03/06 20:30:17;;;;;;;24.23;12.67;;;4.30;99.90;;;;;;5098642;28;20194;-79
2024/03/06 20:33:05;;;;;;;23.87;12.33;;;4.30;99.90;;;;;;5098639;28;20258;-78
2024/03/06 20:36:02;;;;;;;26.80;12.47;;;4.20;99.90;;;;;;5099168;28;20200;-78
2024/03/06 20:38:55;;;;;;;24.37;12.20;;;4.20;99.90;;;;;;5112531;28;20193;-79
2024/03/06 20:41:47;;;;;;;75.87;41.47;;;4.20;99.90;;;;;;5112048;28;20313;-74
2024/03/06 20:44:35;;;;;;;31.87;14.87;;;4.30;99.90;;;;;;5113131;28;20197;-73
2024/03/06 20:47:22;;;;;;;24.93;13.00;;;4.30;99.90;;;;;;5112326;28;20201;-74
2024/03/06 20:50:11;;;;;;;30.27;13.57;;;4.20;99.90;;;;;;5112700;28;20211;-74
2024/03/06 20:52:59;;;;;;;23.80;12.40;;;4.20;99.90;;;;;;5112636;28;20201;-74
2024/03/06 20:55:47;;;;;;;25.10;13.20;;;4.20;99.90;;;;;;5098399;28;20196;-74
2024/03/06 20:58:35;;;;;;;26.63;13.23;;;4.20;99.90;;;;;;5113326;28;20657;-75
2024/03/06 21:01:23;;;;;;;28.08;15.77;;;4.20;99.90;;;;;;5112336;28;20440;-75
2024/03/06 21:04:14;;;;;;;29.77;14.90;;;4.10;99.90;;;;;;5084008;28;20316;-77
